Time;durP1;ratioP1;P1;durP2;ratioP2;P2;SDS_P1;SDS_P2;PMS_P1;PMS_P2;Temp;Humidity;BMP_temperature;BMP_pressure;BME280_temperature;BME280_humidity;BME280_pressure;Samples;Min_cycle;Max_cycle;Signal;HPM_P1;HPM_P2
2023/06/23 00:00:44;;;;;;;6.85;2.90;;;29.20;99.90;;;;;;5107279;28;20023;-57
2023/06/23 00:03:14;;;;;;;3.72;2.55;;;29.10;99.90;;;;;;5096015;28;20021;-58
2023/06/23 00:05:41;;;;;;;6.40;2.47;;;29.10;99.90;;;;;;5098807;28;20030;-60
2023/06/23 00:08:10;;;;;;;7.88;3.13;;;29.10;99.90;;;;;;5099424;28;20016;-59
2023/06/23 00:10:36;;;;;;;9.27;2.85;;;29.00;99.90;;;;;;5106808;28;20028;-57
2023/06/23 00:13:03;;;;;;;5.22;2.45;;;29.00;99.90;;;;;;5098934;28;20307;-59
2023/06/23 00:15:33;;;;;;;4.50;2.33;;;29.00;99.90;;;;;;5085772;28;20188;-60
2023/06/23 00:18:00;;;;;;;7.93;2.13;;;29.00;99.90;;;;;;5085799;28;20024;-59
2023/06/23 00:20:27;;;;;;;4.22;2.67;;;29.00;99.90;;;;;;5086007;28;20066;-58
2023/06/23 00:22:53;;;;;;;11.30;7.47;;;29.00;99.90;;;;;;5085630;28;20020;-58
2023/06/23 00:25:20;;;;;;;4.70;3.92;;;29.00;99.90;;;;;;5085527;28;20052;-57
2023/06/23 00:27:46;;;;;;;5.00;2.80;;;29.00;99.90;;;;;;5085986;28;20024;-60
2023/06/23 00:30:15;;;;;;;7.13;2.50;;;29.00;99.90;;;;;;5084579;28;20029;-59
2023/06/23 00:32:43;;;;;;;5.43;2.88;;;29.00;99.90;;;;;;5085518;28;20028;-56
2023/06/23 00:35:10;;;;;;;6.53;2.28;;;29.00;99.90;;;;;;5097648;28;20032;-57
2023/06/23 00:37:38;;;;;;;6.40;1.92;;;28.90;99.90;;;;;;5096665;28;20026;-54
2023/06/23 00:40:16;;;;;;;3.80;1.50;;;28.80;99.90;;;;;;5091969;28;20092;-58
2023/06/23 00:42:46;;;;;;;4.07;1.75;;;28.80;99.90;;;;;;5085633;28;20025;-55
2023/06/23 00:45:13;;;;;;;9.82;7.40;;;28.80;99.90;;;;;;5085964;28;20028;-57
2023/06/23 00:47:44;;;;;;;12.82;8.48;;;28.80;99.90;;;;;;5085613;28;20016;-55
2023/06/23 00:50:18;;;;;;;6.57;3.08;;;28.80;99.90;;;;;;5085696;28;20048;-58
2023/06/23 00:52:50;;;;;;;5.40;2.75;;;28.80;99.90;;;;;;5085587;28;20035;-57
2023/06/23 00:55:21;;;;;;;4.55;2.70;;;28.80;99.90;;;;;;5085457;28;20101;-56
2023/06/23 00:57:49;;;;;;;6.17;2.50;;;28.80;99.90;;;;;;5091845;28;20048;-59
2023/06/23 01:00:20;;;;;;;4.30;2.33;;;28.80;99.90;;;;;;5105619;28;20288;-60
2023/06/23 01:02:49;;;;;;;4.38;2.20;;;28.80;99.90;;;;;;5102443;28;20043;-61
2023/06/23 01:05:19;;;;;;;7.55;2.45;;;28.70;99.90;;;;;;5105413;28;20032;-60
2023/06/23 01:08:13;;;;;;;10.45;2.25;;;28.70;99.90;;;;;;5105563;28;20078;-59
2023/06/23 01:11:28;;;;;;;5.78;2.30;;;28.80;99.90;;;;;;5084646;28;20040;-61
2023/06/23 01:14:39;;;;;;;9.52;2.40;;;28.80;99.90;;;;;;5091294;28;20106;-61
2023/06/23 01:17:21;;;;;;;3.05;2.00;;;28.90;99.90;;;;;;5084227;28;20320;-61
2023/06/23 01:23:20;;;;;;;5.15;1.80;;;28.80;99.90;;;;;;5090789;28;20028;-63
2023/06/23 01:25:55;;;;;;;4.68;2.08;;;28.80;99.90;;;;;;5104650;28;20351;-64
2023/06/23 01:28:42;;;;;;;3.33;1.90;;;28.70;99.90;;;;;;5105132;28;20246;-61
2023/06/23 01:31:13;;;;;;;7.03;2.38;;;28.80;99.90;;;;;;5104747;28;20185;-60
2023/06/23 01:33:48;;;;;;;6.87;2.13;;;28.80;99.90;;;;;;5105124;28;20035;-62
2023/06/23 01:36:25;;;;;;;4.57;2.42;;;28.80;99.90;;;;;;5103785;28;20346;-65
2023/06/23 01:39:04;;;;;;;4.95;1.95;;;28.70;99.90;;;;;;5105073;28;20080;-57
2023/06/23 01:41:40;;;;;;;7.28;2.10;;;28.80;99.90;;;;;;5101277;28;20020;-59
2023/06/23 01:44:14;;;;;;;3.50;1.70;;;28.70;99.90;;;;;;5092195;28;20216;-61
2023/06/23 01:46:51;;;;;;;4.28;2.22;;;28.70;99.90;;;;;;5097589;28;20017;-64
2023/06/23 01:49:24;;;;;;;4.75;2.03;;;28.70;99.90;;;;;;5082402;28;20380;-61
2023/06/23 01:51:54;;;;;;;5.93;1.55;;;28.70;99.90;;;;;;5099722;28;20024;-63
2023/06/23 01:54:25;;;;;;;8.38;3.13;;;28.60;99.90;;;;;;5099511;28;20024;-62
2023/06/23 01:56:59;;;;;;;7.32;2.95;;;28.50;99.90;;;;;;5095581;28;20091;-60
2023/06/23 01:59:41;;;;;;;4.80;2.28;;;28.50;99.90;;;;;;5086882;28;20052;-58
2023/06/23 02:02:08;;;;;;;;;;;28.40;99.90;;;;;;5085397;28;20040;-60
2023/06/23 02:04:39;;;;;;;6.20;2.22;;;28.40;99.90;;;;;;5084520;28;20266;-62
2023/06/23 02:07:09;;;;;;;4.63;1.73;;;28.40;99.90;;;;;;5084839;28;20036;-55
2023/06/23 02:09:37;;;;;;;8.90;1.60;;;28.30;99.90;;;;;;5083733;28;20284;-63
2023/06/23 02:12:06;;;;;;;3.45;1.40;;;28.20;99.90;;;;;;5084244;28;20055;-61
2023/06/23 02:14:37;;;;;;;2.55;1.13;;;28.10;99.90;;;;;;5083975;28;20051;-63
2023/06/23 02:17:09;;;;;;;7.90;1.67;;;28.00;99.90;;;;;;5084099;28;20024;-62
2023/06/23 02:19:39;;;;;;;6.03;1.20;;;27.90;99.90;;;;;;5083848;28;20054;-63
2023/06/23 02:22:14;;;;;;;6.47;1.23;;;27.90;99.90;;;;;;5083971;28;20028;-59
2023/06/23 02:24:51;;;;;;;5.40;1.13;;;27.90;99.90;;;;;;5083829;28;20032;-61
2023/06/23 02:27:28;;;;;;;6.40;1.63;;;27.80;99.90;;;;;;5087331;28;20067;-63
2023/06/23 02:29:55;;;;;;;9.65;1.38;;;27.80;99.90;;;;;;5100226;28;20216;-63
2023/06/23 02:32:25;;;;;;;5.97;1.73;;;27.80;99.90;;;;;;5104235;28;20200;-62
2023/06/23 02:35:13;;;;;;;6.53;1.30;;;27.80;99.90;;;;;;5104041;28;20028;-60
2023/06/23 02:37:48;;;;;;;7.03;1.60;;;27.70;99.90;;;;;;5101906;28;20308;-59
2023/06/23 02:40:18;;;;;;;5.55;1.42;;;27.70;99.90;;;;;;5097691;28;20028;-60
2023/06/23 02:43:00;;;;;;;4.15;1.27;;;27.60;99.90;;;;;;5083822;28;20039;-60
2023/06/23 02:45:35;;;;;;;4.03;1.25;;;27.60;99.90;;;;;;5086481;28;20031;-63
2023/06/23 02:48:03;;;;;;;5.30;0.90;;;27.60;99.90;;;;;;5101746;28;20056;-59
2023/06/23 02:50:34;;;;;;;4.20;1.15;;;27.60;99.90;;;;;;5092345;28;20175;-58
2023/06/23 02:53:08;;;;;;;4.18;0.95;;;27.60;99.90;;;;;;5100029;28;20024;-60
2023/06/23 02:55:47;;;;;;;8.55;1.60;;;27.60;99.90;;;;;;5101193;28;20028;-56
2023/06/23 02:58:17;;;;;;;20.70;2.60;;;27.60;99.90;;;;;;5095208;28;20028;-56
2023/06/23 03:00:45;;;;;;;17.10;1.88;;;27.50;99.90;;;;;;5083365;28;20343;-58
2023/06/23 03:03:14;;;;;;;14.82;2.38;;;27.60;99.90;;;;;;5087380;28;20058;-60
2023/06/23 03:05:44;;;;;;;10.35;1.27;;;27.50;99.90;;;;;;5087401;28;20017;-62
2023/06/23 03:08:11;;;;;;;32.63;2.85;;;27.50;99.90;;;;;;5087154;28;20028;-59
2023/06/23 03:10:37;;;;;;;24.50;2.72;;;27.50;99.90;;;;;;5093949;28;20015;-52
2023/06/23 03:13:04;;;;;;;24.92;3.03;;;27.60;99.90;;;;;;5107518;28;20035;-55
2023/06/23 03:15:31;;;;;;;13.48;1.92;;;27.90;99.90;;;;;;5107177;28;20288;-54
2023/06/23 03:18:04;;;;;;;8.98;1.60;;;28.00;99.90;;;;;;5107654;28;20024;-57
2023/06/23 03:20:53;;;;;;;6.32;1.38;;;28.00;99.90;;;;;;5107294;28;20133;-56
2023/06/23 03:23:21;;;;;;;5.50;1.45;;;28.00;99.90;;;;;;5107238;28;20035;-56
2023/06/23 03:25:48;;;;;;;7.28;1.40;;;28.00;99.90;;;;;;5106883;28;20058;-55
2023/06/23 03:28:25;;;;;;;7.50;1.52;;;28.00;99.90;;;;;;5107531;28;20032;-56
2023/06/23 03:30:59;;;;;;;3.28;1.30;;;28.00;99.90;;;;;;5107091;28;20038;-57
2023/06/23 03:33:34;;;;;;;7.03;1.35;;;28.00;99.90;;;;;;5107352;28;20073;-58
2023/06/23 03:36:08;;;;;;;7.10;1.58;;;28.00;99.90;;;;;;5106870;28;20036;-56
2023/06/23 03:39:02;;;;;;;7.93;1.35;;;28.00;99.90;;;;;;5106459;28;20031;-57
2023/06/23 03:41:30;;;;;;;8.63;1.17;;;27.90;99.90;;;;;;5106454;28;20060;-56
2023/06/23 03:44:13;;;;;;;4.45;1.20;;;27.80;99.90;;;;;;5106670;28;20027;-54
2023/06/23 03:46:51;;;;;;;4.15;1.13;;;27.70;99.90;;;;;;5106860;28;20067;-55
2023/06/23 03:49:21;;;;;;;6.35;1.20;;;27.70;99.90;;;;;;5106726;28;20035;-55
2023/06/23 03:51:50;;;;;;;6.55;1.98;;;27.80;99.90;;;;;;5106291;28;20035;-55
2023/06/23 03:54:17;;;;;;;7.03;2.58;;;27.80;99.90;;;;;;5106399;28;20022;-55
2023/06/23 03:56:47;;;;;;;6.57;1.95;;;27.80;99.90;;;;;;5106591;28;20028;-55
2023/06/23 03:59:15;;;;;;;4.22;1.52;;;27.80;99.90;;;;;;5106642;28;20054;-57
2023/06/23 04:01:44;;;;;;;6.70;1.77;;;27.80;99.90;;;;;;5102301;28;20052;-56
2023/06/23 04:04:12;;;;;;;8.02;1.35;;;27.80;99.90;;;;;;5097505;28;20035;-53
2023/06/23 04:06:43;;;;;;;4.95;1.20;;;27.80;99.90;;;;;;5104165;28;20035;-54
2023/06/23 04:09:12;;;;;;;4.28;1.75;;;27.80;99.90;;;;;;5095567;28;20028;-53
2023/06/23 04:11:40;;;;;;;4.18;1.50;;;27.70;99.90;;;;;;5086088;28;20028;-54
2023/06/23 04:14:09;;;;;;;4.03;1.20;;;27.60;99.90;;;;;;5085860;28;20024;-58
2023/06/23 04:16:40;;;;;;;6.80;1.20;;;27.60;99.90;;;;;;5085670;28;20342;-57
2023/06/23 04:19:10;;;;;;;3.75;1.10;;;27.60;99.90;;;;;;5085799;28;20038;-54
2023/06/23 04:21:38;;;;;;;7.28;1.00;;;27.70;99.90;;;;;;5085219;28;20028;-54
2023/06/23 04:24:06;;;;;;;4.53;0.98;;;27.70;99.90;;;;;;5085720;28;20017;-57
2023/06/23 04:26:37;;;;;;;5.63;1.25;;;27.70;99.90;;;;;;5085609;28;20048;-56
2023/06/23 04:29:07;;;;;;;6.47;2.13;;;27.70;99.90;;;;;;5085454;28;20025;-56
2023/06/23 04:31:35;;;;;;;6.07;1.85;;;27.70;99.90;;;;;;5085573;28;20410;-56
2023/06/23 04:34:02;;;;;;;4.07;1.40;;;27.70;99.90;;;;;;5085614;28;20040;-55
2023/06/23 04:36:51;;;;;;;5.10;1.33;;;27.70;99.90;;;;;;5084941;28;20032;-55
2023/06/23 04:39:27;;;;;;;3.75;1.20;;;27.80;99.90;;;;;;5085385;28;20174;-56
2023/06/23 04:41:59;;;;;;;6.28;1.40;;;27.90;99.90;;;;;;5085410;28;20047;-59
2023/06/23 04:44:29;;;;;;;8.75;1.75;;;27.90;99.90;;;;;;5085090;28;20036;-57
2023/06/23 04:47:01;;;;;;;8.10;2.15;;;27.90;99.90;;;;;;5093115;28;20095;-57
2023/06/23 04:49:31;;;;;;;4.60;1.83;;;27.90;99.90;;;;;;5105868;28;20203;-57
2023/06/23 04:52:03;;;;;;;8.98;1.92;;;27.90;99.90;;;;;;5105661;28;20035;-58
2023/06/23 04:54:40;;;;;;;5.00;1.40;;;27.90;99.90;;;;;;5105271;28;20015;-58
2023/06/23 04:57:14;;;;;;;8.68;1.45;;;27.90;99.90;;;;;;5105459;28;20032;-58
2023/06/23 04:59:46;;;;;;;7.40;1.70;;;27.80;99.90;;;;;;5105216;28;20061;-55
2023/06/23 05:02:13;;;;;;;4.43;1.50;;;27.90;99.90;;;;;;5098039;28;20103;-56
2023/06/23 05:04:42;;;;;;;7.20;1.63;;;27.90;99.90;;;;;;5099680;28;20023;-54
2023/06/23 05:07:12;;;;;;;5.00;1.85;;;27.70;99.90;;;;;;5105218;28;20044;-58
2023/06/23 05:09:42;;;;;;;5.82;1.40;;;27.70;99.90;;;;;;5105079;28;20330;-60
2023/06/23 05:12:11;;;;;;;9.52;1.60;;;27.60;99.90;;;;;;5105057;28;20315;-57
2023/06/23 05:14:41;;;;;;;2.78;1.20;;;27.70;99.90;;;;;;5104951;28;20243;-54
2023/06/23 05:17:10;;;;;;;5.45;1.50;;;27.80;99.90;;;;;;5105016;28;20301;-55
2023/06/23 05:19:40;;;;;;;5.57;1.05;;;27.70;99.90;;;;;;5104775;28;20024;-54
2023/06/23 05:22:11;;;;;;;9.82;1.90;;;27.70;99.90;;;;;;5105142;28;20020;-54
2023/06/23 05:24:41;;;;;;;4.93;1.30;;;27.80;99.90;;;;;;5104157;28;20050;-57
2023/06/23 05:27:09;;;;;;;6.95;1.40;;;27.80;99.90;;;;;;5104925;28;20036;-59
2023/06/23 05:29:44;;;;;;;6.82;1.48;;;27.70;99.90;;;;;;5104829;28;20015;-55
2023/06/23 05:32:14;;;;;;;4.95;1.63;;;27.70;99.90;;;;;;5104745;28;20024;-54
2023/06/23 05:34:43;;;;;;;7.97;1.35;;;27.70;99.90;;;;;;5104621;28;20024;-51
2023/06/23 05:37:10;;;;;;;3.30;1.33;;;27.70;99.90;;;;;;5104796;28;20020;-57
2023/06/23 05:39:40;;;;;;;7.40;1.40;;;27.80;99.90;;;;;;5104489;28;20081;-58
2023/06/23 05:42:07;;;;;;;6.00;1.25;;;27.80;99.90;;;;;;5104802;28;20318;-56
2023/06/23 05:44:35;;;;;;;2.47;1.02;;;27.70;99.90;;;;;;5096971;28;20334;-57
2023/06/23 05:47:06;;;;;;;6.82;1.25;;;27.80;99.90;;;;;;5084300;28;20020;-55
2023/06/23 05:49:41;;;;;;;10.80;1.73;;;27.80;99.90;;;;;;5084119;28;20017;-56
2023/06/23 05:52:11;;;;;;;9.55;1.15;;;27.70;99.90;;;;;;5084147;28;20032;-57
2023/06/23 05:54:40;;;;;;;13.32;1.77;;;27.80;99.90;;;;;;5084008;28;20083;-55
2023/06/23 05:57:14;;;;;;;8.68;1.15;;;27.80;99.90;;;;;;5083014;28;20194;-58
2023/06/23 05:59:45;;;;;;;4.88;1.10;;;27.80;99.90;;;;;;5083938;28;20020;-59
2023/06/23 06:02:24;;;;;;;6.03;1.50;;;27.70;99.90;;;;;;5084363;28;20025;-61
2023/06/23 06:04:58;;;;;;;5.68;1.40;;;27.80;99.90;;;;;;5083891;28;20028;-61
2023/06/23 06:07:27;;;;;;;7.95;1.30;;;27.70;99.90;;;;;;5083982;28;20028;-61
2023/06/23 06:09:54;;;;;;;6.18;1.20;;;27.80;99.90;;;;;;5083970;28;20047;-60
2023/06/23 06:12:22;;;;;;;5.40;1.20;;;27.80;99.90;;;;;;5084051;28;20037;-60
2023/06/23 06:14:49;;;;;;;6.85;1.30;;;27.80;99.90;;;;;;5083865;28;20024;-57
2023/06/23 06:17:17;;;;;;;7.05;1.55;;;27.80;99.90;;;;;;5084067;28;20088;-58
2023/06/23 06:19:45;;;;;;;4.28;1.20;;;27.80;99.90;;;;;;5083760;28;20024;-61
2023/06/23 06:22:13;;;;;;;6.18;1.30;;;27.70;99.90;;;;;;5084036;28;20024;-58
2023/06/23 06:24:42;;;;;;;3.45;1.08;;;27.70;99.90;;;;;;5083685;28;20035;-57
2023/06/23 06:27:10;;;;;;;7.07;1.38;;;27.60;99.90;;;;;;5083939;28;20296;-58
2023/06/23 06:29:39;;;;;;;4.10;1.13;;;27.70;99.90;;;;;;5083804;28;20323;-57
2023/06/23 06:32:08;;;;;;;5.45;1.20;;;27.60;99.90;;;;;;5083951;28;20095;-59
2023/06/23 06:34:35;;;;;;;6.13;1.10;;;27.60;99.90;;;;;;5083781;28;20040;-55
2023/06/23 06:37:02;;;;;;;3.92;1.00;;;27.50;99.90;;;;;;5085470;28;20083;-56
2023/06/23 06:39:30;;;;;;;5.72;1.10;;;27.50;99.90;;;;;;5087675;28;20084;-57
2023/06/23 06:42:00;;;;;;;4.22;1.17;;;27.60;99.90;;;;;;5088073;28;20033;-60
2023/06/23 06:44:27;;;;;;;4.72;1.05;;;27.60;99.90;;;;;;5087660;28;20068;-55
2023/06/23 06:46:53;;;;;;;6.40;1.27;;;27.60;99.90;;;;;;5087589;28;20037;-57
2023/06/23 06:49:24;;;;;;;4.30;1.50;;;27.60;99.90;;;;;;5087573;28;20034;-57
2023/06/23 06:51:52;;;;;;;4.57;1.10;;;27.50;99.90;;;;;;5087411;28;20044;-60
2023/06/23 06:54:18;;;;;;;3.38;0.98;;;27.50;99.90;;;;;;5087327;28;20212;-60
2023/06/23 06:56:45;;;;;;;4.95;0.90;;;27.40;99.90;;;;;;5087617;28;20074;-59
2023/06/23 06:59:11;;;;;;;4.82;0.75;;;27.40;99.90;;;;;;5087406;28;20201;-57
2023/06/23 07:01:39;;;;;;;4.55;0.90;;;27.40;99.80;;;;;;5087330;28;20362;-60
2023/06/23 07:04:06;;;;;;;5.32;0.80;;;27.30;99.80;;;;;;5087387;28;20028;-57
2023/06/23 07:06:35;;;;;;;4.75;1.00;;;27.30;99.70;;;;;;5087232;28;20353;-56
2023/06/23 07:09:02;;;;;;;3.28;0.80;;;27.30;99.60;;;;;;5087079;28;20032;-56
2023/06/23 07:11:31;;;;;;;4.97;0.80;;;27.20;99.40;;;;;;5087077;28;20044;-59
2023/06/23 07:13:59;;;;;;;5.85;1.02;;;27.20;99.40;;;;;;5087043;28;20046;-55
2023/06/23 07:16:30;;;;;;;5.13;1.08;;;27.20;99.20;;;;;;5086625;28;20043;-58
2023/06/23 07:18:59;;;;;;;5.03;1.02;;;27.20;99.10;;;;;;5087199;28;20032;-54
2023/06/23 07:21:26;;;;;;;6.57;1.00;;;27.20;99.10;;;;;;5086867;28;20204;-55
2023/06/23 07:23:52;;;;;;;5.35;1.00;;;27.20;99.10;;;;;;5086729;28;20040;-58
2023/06/23 07:26:19;;;;;;;3.22;0.85;;;27.20;99.10;;;;;;5086725;28;20040;-53
2023/06/23 07:28:45;;;;;;;5.43;0.93;;;27.20;99.10;;;;;;5086951;28;20224;-52
2023/06/23 07:31:12;;;;;;;5.35;1.10;;;27.20;99.10;;;;;;5087278;28;20017;-53
2023/06/23 07:33:41;;;;;;;4.43;0.85;;;27.20;99.00;;;;;;5097848;28;20024;-55
2023/06/23 07:36:07;;;;;;;2.28;0.70;;;27.20;99.10;;;;;;5106857;28;20338;-56
2023/06/23 07:38:34;;;;;;;4.05;0.85;;;27.20;99.00;;;;;;5106843;28;20032;-56
2023/06/23 07:41:01;;;;;;;5.95;0.90;;;27.20;99.20;;;;;;5106867;28;20022;-58
2023/06/23 07:43:27;;;;;;;5.30;0.90;;;27.20;99.20;;;;;;5107433;28;20062;-55
2023/06/23 07:45:53;;;;;;;2.17;0.82;;;27.20;99.30;;;;;;5106623;28;20031;-55
2023/06/23 07:48:20;;;;;;;5.55;0.90;;;27.20;99.60;;;;;;5106981;28;20020;-53
2023/06/23 07:50:47;;;;;;;2.97;0.80;;;27.20;99.70;;;;;;5106636;28;20031;-57
2023/06/23 07:53:13;;;;;;;4.72;0.73;;;27.20;99.70;;;;;;5106891;28;20063;-61
2023/06/23 07:55:40;;;;;;;7.72;1.02;;;27.30;99.80;;;;;;5106507;28;20026;-54
2023/06/23 07:58:06;;;;;;;5.82;0.80;;;27.40;99.90;;;;;;5107051;28;20028;-55
2023/06/23 08:00:33;;;;;;;6.45;1.10;;;27.30;99.80;;;;;;5106324;28;20091;-57
2023/06/23 08:02:59;;;;;;;7.00;1.00;;;27.30;99.80;;;;;;5106914;28;20024;-55
2023/06/23 08:05:26;;;;;;;2.33;0.80;;;27.40;99.90;;;;;;5106351;28;20316;-56
2023/06/23 08:07:52;;;;;;;8.05;1.08;;;27.40;99.90;;;;;;5106673;28;20042;-57
2023/06/23 08:10:19;;;;;;;5.57;0.98;;;27.40;99.90;;;;;;5106313;28;20031;-56
2023/06/23 08:12:45;;;;;;;3.42;1.05;;;27.40;99.90;;;;;;5106590;28;20300;-60
2023/06/23 08:15:12;;;;;;;7.38;1.00;;;27.40;99.90;;;;;;5105945;28;20035;-56
2023/06/23 08:17:38;;;;;;;5.45;1.00;;;27.40;99.90;;;;;;5106365;28;20207;-57
2023/06/23 08:20:05;;;;;;;3.70;0.80;;;27.40;99.90;;;;;;5106054;28;20020;-59
2023/06/23 08:22:32;;;;;;;7.47;1.15;;;27.50;99.90;;;;;;5106337;28;20055;-59
2023/06/23 08:24:58;;;;;;;6.97;0.98;;;27.50;99.90;;;;;;5105726;28;20040;-61
2023/06/23 08:27:25;;;;;;;7.78;1.40;;;27.50;99.90;;;;;;5106225;28;20040;-55
2023/06/23 08:29:51;;;;;;;8.70;1.00;;;27.40;99.90;;;;;;5105912;28;20258;-57
2023/06/23 08:32:18;;;;;;;5.78;1.23;;;27.50;99.90;;;;;;5105966;28;20019;-57
2023/06/23 08:34:44;;;;;;;4.38;1.10;;;27.40;99.90;;;;;;5105867;28;20232;-56
2023/06/23 08:37:11;;;;;;;5.25;1.27;;;27.40;99.90;;;;;;5106058;28;20053;-56
2023/06/23 08:39:46;;;;;;;7.10;1.00;;;27.50;99.90;;;;;;5105580;28;20091;-56
2023/06/23 08:42:13;;;;;;;7.43;1.08;;;27.50;99.90;;;;;;5105877;28;20051;-57
2023/06/23 08:44:49;;;;;;;4.80;1.30;;;27.50;99.90;;;;;;5105719;28;20016;-59
2023/06/23 08:47:19;;;;;;;3.38;0.85;;;27.50;99.90;;;;;;5105725;28;20232;-55
2023/06/23 08:49:48;;;;;;;5.18;1.08;;;27.50;99.90;;;;;;5105527;28;20312;-55
2023/06/23 08:52:17;;;;;;;5.70;1.10;;;27.50;99.90;;;;;;5105523;28;20028;-59
2023/06/23 08:54:43;;;;;;;7.63;0.90;;;27.40;99.90;;;;;;5105283;28;20024;-59
2023/06/23 08:57:10;;;;;;;4.35;1.08;;;27.30;99.90;;;;;;5105316;28;20051;-54
2023/06/23 08:59:40;;;;;;;3.88;0.77;;;27.30;99.90;;;;;;5104614;28;20286;-57
2023/06/23 09:02:07;;;;;;;6.78;0.93;;;27.30;99.90;;;;;;5105609;28;20039;-57
2023/06/23 09:04:33;;;;;;;4.82;1.17;;;27.20;99.90;;;;;;5105276;28;20008;-56
2023/06/23 09:07:00;;;;;;;4.85;0.88;;;27.30;99.90;;;;;;5105326;28;20027;-55
2023/06/23 09:09:26;;;;;;;5.15;1.17;;;27.30;99.90;;;;;;5105086;28;20040;-54
2023/06/23 09:11:53;;;;;;;5.22;1.02;;;27.30;99.90;;;;;;5105195;28;20262;-54
2023/06/23 09:14:21;;;;;;;6.10;1.15;;;27.30;99.90;;;;;;5105031;28;20114;-53
2023/06/23 09:16:48;;;;;;;11.98;2.78;;;27.30;99.90;;;;;;5105096;28;20231;-54
2023/06/23 09:19:15;;;;;;;4.90;2.00;;;27.30;99.90;;;;;;5104904;28;20335;-59
2023/06/23 09:21:42;;;;;;;7.88;1.95;;;27.30;99.90;;;;;;5104706;28;20029;-55
2023/06/23 09:24:09;;;;;;;8.57;1.65;;;27.30;99.90;;;;;;5104781;28;20320;-54
2023/06/23 09:26:54;;;;;;;4.70;1.20;;;27.30;99.90;;;;;;5104885;28;20048;-56
2023/06/23 09:29:26;;;;;;;3.20;1.13;;;27.30;99.90;;;;;;5104734;28;20027;-57
2023/06/23 09:31:54;;;;;;;5.55;1.27;;;27.30;99.90;;;;;;5104810;28;20031;-55
2023/06/23 09:34:29;;;;;;;5.75;1.70;;;27.20;99.90;;;;;;5104813;28;20032;-56
2023/06/23 09:37:12;;;;;;;6.75;1.77;;;27.30;99.90;;;;;;5104749;28;20032;-54
2023/06/23 09:39:49;;;;;;;6.20;1.50;;;27.20;99.90;;;;;;5104533;28;20192;-55
2023/06/23 09:42:16;;;;;;;4.95;1.70;;;27.30;99.90;;;;;;5104729;28;20027;-57
2023/06/23 09:44:47;;;;;;;5.63;2.10;;;27.30;99.90;;;;;;5104397;28;20034;-60
2023/06/23 09:47:21;;;;;;;7.70;2.00;;;27.20;99.90;;;;;;5104660;28;20024;-57
2023/06/23 09:49:49;;;;;;;5.25;1.60;;;27.20;99.90;;;;;;5104424;28;20099;-57
2023/06/23 09:52:24;;;;;;;9.18;1.98;;;27.20;99.90;;;;;;5104500;28;20087;-56
2023/06/23 09:54:51;;;;;;;5.03;1.42;;;27.10;99.90;;;;;;5104299;28;20027;-56
2023/06/23 09:57:19;;;;;;;7.70;1.60;;;27.20;99.90;;;;;;5104546;28;20027;-55
2023/06/23 09:59:49;;;;;;;8.25;1.58;;;27.20;99.90;;;;;;5104685;28;20031;-57
2023/06/23 10:02:27;;;;;;;3.70;1.38;;;27.10;99.90;;;;;;5104511;28;20036;-55
2023/06/23 10:05:05;;;;;;;5.28;1.52;;;27.10;99.90;;;;;;5104152;28;20031;-57
2023/06/23 10:07:32;;;;;;;4.40;1.58;;;27.10;99.90;;;;;;5102976;28;20040;-57
2023/06/23 10:10:04;;;;;;;6.00;1.52;;;27.20;99.90;;;;;;5104016;28;20113;-54
2023/06/23 10:12:33;;;;;;;8.52;1.58;;;27.20;99.90;;;;;;5104402;28;20097;-56
2023/06/23 10:15:00;;;;;;;5.82;1.50;;;27.30;99.90;;;;;;5104017;28;20032;-55
2023/06/23 10:17:26;;;;;;;6.22;1.92;;;27.30;99.90;;;;;;5104199;28;20055;-60
2023/06/23 10:19:56;;;;;;;10.10;2.22;;;27.40;99.90;;;;;;5104102;28;20076;-59
2023/06/23 10:22:23;;;;;;;9.38;2.20;;;27.30;99.90;;;;;;5104276;28;20296;-57
2023/06/23 10:24:52;;;;;;;5.50;2.03;;;27.40;99.90;;;;;;5103706;28;20335;-54
2023/06/23 10:27:29;;;;;;;12.65;2.38;;;27.40;99.90;;;;;;5104200;28;20064;-52
2023/06/23 10:30:00;;;;;;;11.68;2.15;;;27.50;99.90;;;;;;5104064;28;20031;-53
2023/06/23 10:32:33;;;;;;;12.48;2.20;;;27.50;99.90;;;;;;5104277;28;20047;-52
2023/06/23 10:35:06;;;;;;;7.03;1.77;;;27.50;99.90;;;;;;5103893;28;20034;-53
2023/06/23 10:37:35;;;;;;;6.00;1.70;;;27.50;99.90;;;;;;5103996;28;20086;-53
2023/06/23 10:40:06;;;;;;;4.55;1.63;;;27.50;99.90;;;;;;5103868;28;20027;-53
2023/06/23 10:42:36;;;;;;;4.35;1.83;;;27.50;99.90;;;;;;5104173;28;20087;-52
2023/06/23 10:45:03;;;;;;;7.25;1.90;;;27.50;99.90;;;;;;5103881;28;20032;-54
2023/06/23 10:47:29;;;;;;;7.90;1.67;;;27.50;99.90;;;;;;5104106;28;20024;-58
2023/06/23 10:49:57;;;;;;;9.75;1.73;;;27.50;99.90;;;;;;5096443;28;20032;-55
2023/06/23 10:52:24;;;;;;;6.20;1.25;;;27.50;99.90;;;;;;5097844;28;20051;-61
2023/06/23 10:54:50;;;;;;;10.52;1.90;;;27.50;99.90;;;;;;5103734;28;20189;-60
2023/06/23 10:57:17;;;;;;;11.02;2.85;;;27.50;99.90;;;;;;5103901;28;20173;-53
2023/06/23 10:59:57;;;;;;;8.57;2.65;;;27.60;99.90;;;;;;5103749;28;20032;-53
2023/06/23 11:02:25;;;;;;;9.52;2.55;;;27.60;99.90;;;;;;5103942;28;20047;-59
2023/06/23 11:05:02;;;;;;;10.85;2.30;;;27.60;99.90;;;;;;5104241;28;20028;-59
2023/06/23 11:07:28;;;;;;;8.25;2.33;;;27.70;99.90;;;;;;5104965;28;20219;-58
2023/06/23 11:09:59;;;;;;;22.92;7.45;;;27.70;99.90;;;;;;5104501;28;20024;-58
2023/06/23 11:12:40;;;;;;;6.10;2.80;;;27.60;99.90;;;;;;5104538;28;20024;-58
2023/06/23 11:15:16;;;;;;;12.13;2.63;;;27.50;99.90;;;;;;5104381;28;20193;-55
2023/06/23 11:17:44;;;;;;;10.45;2.90;;;27.60;99.90;;;;;;5104591;28;20024;-58
2023/06/23 11:20:29;;;;;;;9.93;2.85;;;27.70;99.90;;;;;;5104401;28;20031;-55
2023/06/23 11:23:09;;;;;;;9.98;2.83;;;27.80;99.90;;;;;;5104196;28;20091;-56
2023/06/23 11:25:47;;;;;;;9.55;3.03;;;27.80;99.90;;;;;;5106826;28;20039;-61
2023/06/23 11:28:39;;;;;;;18.67;3.17;;;27.80;99.90;;;;;;5105790;28;20028;-60
2023/06/23 11:31:15;;;;;;;10.87;2.90;;;27.80;99.90;;;;;;5106083;28;20103;-58
2023/06/23 11:34:00;;;;;;;11.57;2.50;;;27.90;99.90;;;;;;5106619;28;20020;-56
2023/06/23 11:36:29;;;;;;;9.68;2.30;;;27.90;99.90;;;;;;5106775;28;20044;-53
2023/06/23 11:38:56;;;;;;;11.18;2.20;;;28.00;99.90;;;;;;5106999;28;20199;-57
2023/06/23 11:41:27;;;;;;;13.65;2.53;;;27.90;99.90;;;;;;5106790;28;20024;-55
2023/06/23 11:44:02;;;;;;;8.68;2.42;;;27.90;99.90;;;;;;5106929;28;20012;-56
2023/06/23 11:46:32;;;;;;;6.45;1.90;;;27.90;99.90;;;;;;5106916;28;20039;-60
2023/06/23 11:49:11;;;;;;;9.80;2.00;;;27.80;99.90;;;;;;5107137;28;20336;-60
2023/06/23 11:51:39;;;;;;;9.27;2.28;;;27.80;99.90;;;;;;5106834;28;20063;-59
2023/06/23 11:54:08;;;;;;;6.13;2.00;;;27.80;99.90;;;;;;5106878;28;20031;-60
2023/06/23 11:56:53;;;;;;;7.95;2.92;;;27.80;99.90;;;;;;5107854;28;20032;-58
2023/06/23 11:59:20;;;;;;;8.00;2.47;;;27.80;99.90;;;;;;5106752;28;20027;-56
2023/06/23 12:01:46;;;;;;;6.95;2.80;;;27.80;99.90;;;;;;5106549;28;20028;-57
2023/06/23 12:04:12;;;;;;;6.25;2.30;;;27.90;99.90;;;;;;5106436;28;20058;-56
2023/06/23 12:06:39;;;;;;;7.28;3.35;;;27.80;99.90;;;;;;5103787;28;20032;-58
2023/06/23 12:09:08;;;;;;;9.48;3.17;;;27.80;99.90;;;;;;5106251;28;20028;-60
2023/06/23 12:11:37;;;;;;;27.70;4.82;;;27.80;99.90;;;;;;5106807;28;20303;-57
2023/06/23 12:14:04;;;;;;;42.05;7.40;;;27.80;99.90;;;;;;5106423;28;20030;-56
2023/06/23 12:16:38;;;;;;;28.13;5.45;;;27.80;99.90;;;;;;5106276;28;20038;-55
2023/06/23 12:19:05;;;;;;;34.20;6.32;;;27.90;99.90;;;;;;5105927;28;20096;-55
2023/06/23 12:21:35;;;;;;;25.85;5.75;;;27.90;99.90;;;;;;5104172;28;20028;-58
2023/06/23 12:24:01;;;;;;;18.02;5.15;;;28.00;99.90;;;;;;5106087;28;20019;-58
2023/06/23 12:26:28;;;;;;;24.02;4.90;;;28.00;99.90;;;;;;5105875;28;20125;-53
2023/06/23 12:29:12;;;;;;;22.95;4.50;;;28.00;99.90;;;;;;5105806;28;20041;-61
2023/06/23 12:31:39;;;;;;;26.25;4.45;;;28.00;99.90;;;;;;5106131;28;20247;-57
2023/06/23 12:34:09;;;;;;;27.20;4.25;;;28.00;99.90;;;;;;5105741;28;20334;-56
2023/06/23 12:36:39;;;;;;;20.05;4.35;;;28.20;99.90;;;;;;5105680;28;20186;-56
2023/06/23 12:39:12;;;;;;;14.73;4.07;;;28.20;99.90;;;;;;5096139;28;20050;-55
2023/06/23 12:41:40;;;;;;;;;;;28.30;99.90;;;;;;5087991;28;20036;-55
2023/06/23 12:44:07;;;;;;;10.25;3.67;;;28.40;99.90;;;;;;5085861;28;19904;-61
2023/06/23 12:46:33;;;;;;;15.80;3.55;;;28.40;99.90;;;;;;5085492;28;20032;-54
2023/06/23 12:49:00;;;;;;;14.05;3.67;;;28.50;99.90;;;;;;5085376;28;20063;-53
2023/06/23 12:51:36;;;;;;;14.45;3.28;;;28.60;99.90;;;;;;5085417;28;20041;-54
2023/06/23 12:54:03;;;;;;;8.77;3.03;;;28.60;99.90;;;;;;5085320;28;20212;-56
2023/06/23 12:56:30;;;;;;;8.40;3.33;;;28.70;99.90;;;;;;5086982;28;20036;-56
2023/06/23 12:58:57;;;;;;;13.18;3.05;;;28.70;99.90;;;;;;5105422;28;20051;-59
2023/06/23 13:01:24;;;;;;;8.70;3.05;;;28.70;99.90;;;;;;5105320;28;20059;-58
2023/06/23 13:03:54;;;;;;;8.48;2.45;;;28.80;99.90;;;;;;5098708;28;20343;-62
2023/06/23 13:06:23;;;;;;;6.47;2.40;;;28.90;99.90;;;;;;5085462;28;20039;-58